Time;durP1;ratioP1;P1;durP2;ratioP2;P2;SDS_P1;SDS_P2;PMS_P1;PMS_P2;Temp;Humidity;BMP_temperature;BMP_pressure;BME280_temperature;BME280_humidity;BME280_pressure;Samples;Min_cycle;Max_cycle;Signal;HPM_P1;HPM_P2
2021/05/09 00:01:58;;;;;;;5.70;4.20;;;;;;;;;;5033307;28;20452;-58
2021/05/09 00:04:26;;;;;;;4.00;2.87;;;;;;;;;;5033666;28;20495;-59
2021/05/09 00:06:55;;;;;;;7.90;5.10;;;;;;;;;;5033224;28;20465;-58
2021/05/09 00:09:22;;;;;;;5.90;4.83;;;;;;;;;;5033505;28;20564;-58
2021/05/09 00:11:49;;;;;;;4.90;4.40;;;;;;;;;;5033612;28;20449;-58
2021/05/09 00:14:16;;;;;;;6.83;6.03;;;;;;;;;;5033576;28;20447;-59
2021/05/09 00:16:42;;;;;;;3.43;3.10;;;;;;;;;;5034164;28;20441;-58
2021/05/09 00:19:09;;;;;;;3.40;3.07;;;;;;;;;;5033172;28;20449;-58
2021/05/09 00:21:37;;;;;;;2.47;2.27;;;;;;;;;;5033882;28;20503;-58
2021/05/09 00:24:04;;;;;;;2.37;2.13;;;;;;;;;;5035622;28;20445;-57
2021/05/09 00:26:32;;;;;;;2.80;2.23;;;;;;;;;;5037713;28;20506;-58
2021/05/09 00:28:58;;;;;;;4.10;3.50;;;;;;;;;;5037290;28;20576;-58
2021/05/09 00:31:25;;;;;;;2.80;2.60;;;;;;;;;;5037328;28;20816;-58
2021/05/09 00:33:52;;;;;;;2.43;2.10;;;;;;;;;;5037279;28;20673;-59
2021/05/09 00:36:19;;;;;;;3.10;2.43;;;;;;;;;;5037139;28;20457;-57
2021/05/09 00:38:47;;;;;;;2.60;2.20;;;;;;;;;;5061518;22;20894;-62
2021/05/09 00:41:13;;;;;;;4.30;2.40;;;;;;;;;;5037207;28;20500;-61
2021/05/09 00:43:40;;;;;;;4.40;2.40;;;;;;;;;;5037170;28;20475;-61
2021/05/09 00:46:07;;;;;;;3.37;2.00;;;;;;;;;;5037218;28;20818;-61
2021/05/09 00:48:34;;;;;;;5.97;2.37;;;;;;;;;;5040074;28;20480;-61
2021/05/09 00:51:01;;;;;;;2.30;2.10;;;;;;;;;;5041630;28;20445;-61
2021/05/09 00:53:28;;;;;;;7.13;4.60;;;;;;;;;;5044068;28;20476;-61
2021/05/09 00:55:56;;;;;;;3.53;3.20;;;;;;;;;;5042878;28;20460;-61
2021/05/09 00:58:23;;;;;;;2.50;2.30;;;;;;;;;;5038181;28;20452;-62
2021/05/09 01:00:50;;;;;;;5.22;4.50;;;;;;;;;;5040671;28;20444;-61
2021/05/09 01:03:19;;;;;;;3.37;2.43;;;;;;;;;;5043468;28;20203;-62
2021/05/09 01:05:46;;;;;;;3.63;2.20;;;;;;;;;;5042846;28;20457;-61
2021/05/09 01:08:13;;;;;;;2.70;2.50;;;;;;;;;;5041825;28;20476;-61
2021/05/09 01:10:40;;;;;;;2.10;1.90;;;;;;;;;;5043164;28;20820;-62
2021/05/09 01:13:07;;;;;;;2.63;1.90;;;;;;;;;;5042783;28;20452;-61
2021/05/09 01:15:34;;;;;;;6.13;2.53;;;;;;;;;;5043550;28;20441;-61
2021/05/09 01:18:01;;;;;;;2.10;1.90;;;;;;;;;;5044025;28;20464;-61
2021/05/09 01:20:33;;;;;;;2.67;2.00;;;;;;;;;;5042910;28;20449;-62
2021/05/09 01:23:00;;;;;;;1.87;1.67;;;;;;;;;;5042888;28;20456;-62
2021/05/09 01:25:26;;;;;;;2.20;1.90;;;;;;;;;;5041817;28;20449;-62
2021/05/09 01:27:55;;;;;;;3.00;1.80;;;;;;;;;;5040933;28;20471;-62
2021/05/09 01:30:22;;;;;;;5.10;2.47;;;;;;;;;;5040306;28;20445;-62
2021/05/09 01:32:48;;;;;;;1.97;1.87;;;;;;;;;;5039870;28;20449;-62
2021/05/09 01:35:15;;;;;;;1.90;1.80;;;;;;;;;;5039586;28;20441;-62
2021/05/09 01:37:43;;;;;;;3.20;2.60;;;;;;;;;;5039796;28;20527;-62
2021/05/09 01:40:12;;;;;;;2.60;2.10;;;;;;;;;;5036454;28;20441;-62
2021/05/09 01:42:39;;;;;;;2.57;2.00;;;;;;;;;;5036102;28;20479;-62
2021/05/09 01:45:07;;;;;;;2.27;1.70;;;;;;;;;;5035886;28;20441;-62
2021/05/09 01:47:36;;;;;;;2.43;2.23;;;;;;;;;;5035727;28;20983;-62
2021/05/09 01:50:03;;;;;;;4.23;2.27;;;;;;;;;;5035604;28;20531;-62
2021/05/09 01:52:30;;;;;;;2.40;2.20;;;;;;;;;;5035977;28;20445;-62
2021/05/09 01:54:57;;;;;;;3.63;2.13;;;;;;;;;;5035902;28;20456;-62
2021/05/09 01:57:24;;;;;;;3.00;2.30;;;;;;;;;;5035459;28;20975;-62
2021/05/09 01:59:51;;;;;;;3.07;2.50;;;;;;;;;;5035548;28;20933;-62
2021/05/09 02:02:17;;;;;;;2.27;2.07;;;;;;;;;;5035518;28;20885;-62
2021/05/09 02:04:44;;;;;;;1.80;1.70;;;;;;;;;;5035779;28;20801;-62
2021/05/09 02:07:11;;;;;;;2.73;2.40;;;;;;;;;;5035206;28;20983;-62
2021/05/09 02:09:38;;;;;;;2.27;2.07;;;;;;;;;;5035272;28;20477;-62
2021/05/09 02:12:06;;;;;;;2.90;1.93;;;;;;;;;;5035416;28;20449;-62
2021/05/09 02:14:33;;;;;;;3.47;1.90;;;;;;;;;;5035708;28;20990;-62
2021/05/09 02:17:00;;;;;;;2.63;2.13;;;;;;;;;;5035648;28;21006;-62
2021/05/09 02:19:27;;;;;;;1.80;1.70;;;;;;;;;;5036004;28;20441;-63
2021/05/09 02:21:53;;;;;;;2.53;1.90;;;;;;;;;;5036259;28;20445;-61
2021/05/09 02:24:20;;;;;;;1.97;1.77;;;;;;;;;;5035937;28;20462;-62
2021/05/09 02:26:47;;;;;;;5.37;2.20;;;;;;;;;;5036340;28;20960;-62
2021/05/09 02:29:14;;;;;;;2.40;2.00;;;;;;;;;;5036146;28;20481;-62
2021/05/09 02:31:41;;;;;;;3.10;2.30;;;;;;;;;;5035745;28;20449;-62
2021/05/09 02:34:08;;;;;;;2.87;2.07;;;;;;;;;;5035621;28;20464;-63
2021/05/09 02:36:35;;;;;;;2.33;2.13;;;;;;;;;;5035313;28;20453;-62
2021/05/09 02:39:01;;;;;;;3.40;2.00;;;;;;;;;;5035881;28;20480;-62
2021/05/09 02:41:28;;;;;;;3.67;2.37;;;;;;;;;;5035193;28;20514;-62
2021/05/09 02:43:55;;;;;;;3.10;2.80;;;;;;;;;;5035184;28;20446;-62
2021/05/09 02:46:23;;;;;;;4.50;2.60;;;;;;;;;;5033819;28;20452;-62
2021/05/09 02:48:50;;;;;;;2.00;1.70;;;;;;;;;;5034536;28;20481;-62
2021/05/09 02:51:18;;;;;;;2.30;2.00;;;;;;;;;;5034815;28;20472;-61
2021/05/09 02:53:45;;;;;;;3.80;2.50;;;;;;;;;;5034725;28;20451;-61
2021/05/09 02:56:12;;;;;;;2.83;2.63;;;;;;;;;;5034378;28;20445;-62
2021/05/09 02:58:38;;;;;;;2.10;1.90;;;;;;;;;;5034250;28;20472;-62
2021/05/09 03:01:05;;;;;;;3.60;2.30;;;;;;;;;;5034394;28;20438;-61
2021/05/09 03:03:33;;;;;;;3.57;2.20;;;;;;;;;;5035093;28;20449;-61
2021/05/09 03:06:00;;;;;;;4.00;2.27;;;;;;;;;;5034570;28;20449;-62
2021/05/09 03:08:26;;;;;;;3.67;2.47;;;;;;;;;;5034304;28;20481;-62
2021/05/09 03:10:53;;;;;;;3.20;2.40;;;;;;;;;;5034405;28;20610;-62
2021/05/09 03:13:20;;;;;;;2.50;2.30;;;;;;;;;;5034351;28;20444;-61
2021/05/09 03:15:47;;;;;;;3.47;2.20;;;;;;;;;;5034270;28;20468;-61
2021/05/09 03:18:13;;;;;;;2.30;2.10;;;;;;;;;;5034156;28;20465;-61
2021/05/09 03:20:41;;;;;;;2.67;2.47;;;;;;;;;;5034372;28;20448;-61
2021/05/09 03:23:09;;;;;;;2.83;2.40;;;;;;;;;;5034028;28;20849;-61
2021/05/09 03:25:36;;;;;;;3.10;2.80;;;;;;;;;;5034128;28;20442;-61
2021/05/09 03:28:03;;;;;;;2.70;2.50;;;;;;;;;;5034053;28;20471;-62
2021/05/09 03:30:30;;;;;;;2.30;2.10;;;;;;;;;;5033870;28;20452;-62
2021/05/09 03:32:57;;;;;;;7.43;2.87;;;;;;;;;;5033745;28;20445;-61
2021/05/09 03:35:24;;;;;;;2.80;2.60;;;;;;;;;;5034222;28;20495;-62
2021/05/09 03:37:51;;;;;;;2.93;2.60;;;;;;;;;;5033671;28;20535;-62
2021/05/09 03:40:18;;;;;;;2.70;2.27;;;;;;;;;;5034064;28;20817;-62
2021/05/09 03:42:45;;;;;;;2.60;2.20;;;;;;;;;;5033981;28;20449;-62
2021/05/09 03:45:12;;;;;;;2.50;2.30;;;;;;;;;;5034788;28;20445;-62
2021/05/09 03:47:39;;;;;;;3.13;2.83;;;;;;;;;;5033823;28;20469;-62
2021/05/09 03:50:06;;;;;;;2.70;2.50;;;;;;;;;;5033569;28;20481;-62
2021/05/09 03:52:33;;;;;;;3.30;2.50;;;;;;;;;;5033731;28;20472;-62
2021/05/09 03:55:01;;;;;;;2.40;2.20;;;;;;;;;;5033303;28;20449;-62
2021/05/09 03:57:28;;;;;;;2.57;2.20;;;;;;;;;;5033344;28;20465;-62
2021/05/09 03:59:54;;;;;;;5.00;2.63;;;;;;;;;;5033581;28;20449;-62
2021/05/09 04:02:21;;;;;;;2.60;2.40;;;;;;;;;;5033622;28;20827;-62
2021/05/09 04:08:06;;;;;;;3.03;2.33;;;;;;;;;;5112260;27;20564;-62
2021/05/09 04:10:33;;;;;;;3.07;2.30;;;;;;;;;;5111832;28;20441;-62
2021/05/09 04:13:00;;;;;;;3.07;2.00;;;;;;;;;;5111708;28;20437;-62
2021/05/09 04:15:26;;;;;;;4.23;2.70;;;;;;;;;;5111709;28;20438;-63
2021/05/09 04:17:53;;;;;;;2.70;2.37;;;;;;;;;;5111210;28;20469;-62
2021/05/09 04:20:20;;;;;;;3.03;2.40;;;;;;;;;;5111348;28;20442;-62
2021/05/09 04:22:47;;;;;;;2.63;2.43;;;;;;;;;;5111220;28;20496;-62
2021/05/09 04:25:15;;;;;;;2.60;2.40;;;;;;;;;;5111006;28;20963;-62
2021/05/09 04:27:41;;;;;;;2.53;2.30;;;;;;;;;;5111044;28;20487;-62
2021/05/09 04:30:09;;;;;;;2.83;2.57;;;;;;;;;;5111153;28;20817;-62
2021/05/09 04:32:36;;;;;;;4.07;2.30;;;;;;;;;;5111142;28;20457;-62
2021/05/09 04:35:02;;;;;;;4.40;2.40;;;;;;;;;;5111178;28;20439;-61
2021/05/09 04:37:29;;;;;;;2.43;2.23;;;;;;;;;;5111786;28;20514;-61
2021/05/09 04:39:56;;;;;;;2.57;2.33;;;;;;;;;;5111730;28;20459;-62
2021/05/09 04:42:23;;;;;;;2.30;1.87;;;;;;;;;;5111333;28;20452;-62
2021/05/09 04:44:50;;;;;;;3.13;2.40;;;;;;;;;;5110746;28;20997;-62
2021/05/09 04:47:17;;;;;;;2.10;1.90;;;;;;;;;;5110663;28;21007;-61
2021/05/09 04:49:44;;;;;;;3.87;2.10;;;;;;;;;;5116059;28;20510;-63
2021/05/09 04:52:10;;;;;;;3.50;2.10;;;;;;;;;;5121821;28;20468;-62
2021/05/09 04:54:37;;;;;;;2.43;2.10;;;;;;;;;;5110959;28;20803;-62
2021/05/09 04:57:04;;;;;;;2.50;2.30;;;;;;;;;;5110726;28;20467;-61
2021/05/09 04:59:32;;;;;;;2.20;2.00;;;;;;;;;;5110769;28;20444;-62
2021/05/09 05:01:58;;;;;;;2.50;2.30;;;;;;;;;;5110655;28;20446;-63
2021/05/09 05:04:25;;;;;;;4.30;2.13;;;;;;;;;;5110477;28;20444;-63
2021/05/09 05:06:52;;;;;;;1.97;1.77;;;;;;;;;;5110237;28;20485;-62
2021/05/09 05:09:19;;;;;;;3.10;1.77;;;;;;;;;;5110208;28;20819;-61
2021/05/09 05:11:45;;;;;;;2.33;1.80;;;;;;;;;;5111331;28;20451;-62
2021/05/09 05:14:12;;;;;;;2.03;1.93;;;;;;;;;;5110544;28;20446;-63
2021/05/09 05:16:40;;;;;;;3.30;1.90;;;;;;;;;;5110514;28;20440;-62
2021/05/09 05:19:07;;;;;;;2.00;1.67;;;;;;;;;;5098457;28;20533;-63
2021/05/09 05:21:33;;;;;;;1.87;1.77;;;;;;;;;;5097703;28;20936;-62
2021/05/09 05:24:00;;;;;;;2.17;1.87;;;;;;;;;;5099576;28;20789;-62
2021/05/09 05:26:27;;;;;;;3.30;2.40;;;;;;;;;;5100830;28;21029;-62
2021/05/09 05:28:53;;;;;;;2.27;2.07;;;;;;;;;;5099772;28;20968;-61
2021/05/09 05:31:20;;;;;;;3.00;1.93;;;;;;;;;;5098446;28;20442;-62
2021/05/09 05:33:48;;;;;;;2.03;1.70;;;;;;;;;;5098807;28;20944;-64
2021/05/09 05:36:15;;;;;;;2.40;2.00;;;;;;;;;;5097888;28;20443;-63
2021/05/09 05:38:41;;;;;;;1.93;1.67;;;;;;;;;;5097000;28;20469;-62
2021/05/09 05:41:09;;;;;;;2.10;1.87;;;;;;;;;;5097068;28;20453;-62
2021/05/09 05:43:35;;;;;;;2.13;1.60;;;;;;;;;;5096960;28;20453;-62
2021/05/09 05:46:03;;;;;;;2.50;1.67;;;;;;;;;;5099397;28;20442;-62
2021/05/09 05:48:30;;;;;;;1.80;1.70;;;;;;;;;;5098816;28;20467;-62
2021/05/09 05:50:58;;;;;;;3.03;2.43;;;;;;;;;;5098663;28;20446;-62
2021/05/09 05:53:26;;;;;;;2.10;1.70;;;;;;;;;;5098245;28;20439;-61
2021/05/09 05:55:53;;;;;;;2.03;1.70;;;;;;;;;;5098173;28;20448;-61
2021/05/09 05:58:20;;;;;;;3.20;1.60;;;;;;;;;;5098033;28;20481;-63
2021/05/09 06:00:47;;;;;;;2.07;1.83;;;;;;;;;;5097973;28;20812;-62
2021/05/09 06:03:14;;;;;;;1.83;1.70;;;;;;;;;;5098924;28;20445;-62
2021/05/09 06:05:43;;;;;;;2.50;1.80;;;;;;;;;;5097071;28;20442;-63
2021/05/09 06:08:11;;;;;;;3.00;1.77;;;;;;;;;;5096271;28;20487;-62
2021/05/09 06:10:37;;;;;;;1.70;1.60;;;;;;;;;;5096183;28;20445;-61
2021/05/09 06:13:04;;;;;;;2.07;1.73;;;;;;;;;;5095921;28;20458;-62
2021/05/09 06:15:31;;;;;;;2.33;1.87;;;;;;;;;;5096361;28;20442;-62
2021/05/09 06:17:58;;;;;;;3.37;1.50;;;;;;;;;;5097214;28;20458;-62
2021/05/09 06:20:26;;;;;;;2.60;2.03;;;;;;;;;;5097438;28;20446;-62
2021/05/09 06:22:56;;;;;;;2.63;1.70;;;;;;;;;;5096518;28;20454;-62
2021/05/09 06:25:23;;;;;;;3.97;2.30;;;;;;;;;;5103773;28;20438;-62
2021/05/09 06:27:50;;;;;;;2.00;1.77;;;;;;;;;;5105755;28;20476;-63
2021/05/09 06:30:17;;;;;;;2.50;1.97;;;;;;;;;;5106815;28;20446;-62
2021/05/09 06:32:44;;;;;;;2.57;2.23;;;;;;;;;;5105918;28;20440;-63
2021/05/09 06:35:11;;;;;;;2.20;1.77;;;;;;;;;;5096789;28;20453;-62
2021/05/09 06:37:38;;;;;;;2.00;1.70;;;;;;;;;;5111695;22;20680;-69
2021/05/09 06:40:05;;;;;;;2.20;1.80;;;;;;;;;;5035936;28;20434;-57
2021/05/09 06:42:33;;;;;;;1.83;1.63;;;;;;;;;;5034794;28;20451;-59
2021/05/09 06:45:04;;;;;;;4.80;1.90;;;;;;;;;;5034585;28;20525;-59
2021/05/09 06:47:31;;;;;;;2.20;1.50;;;;;;;;;;5034833;28;20466;-60
2021/05/09 06:49:57;;;;;;;2.00;1.80;;;;;;;;;;5034757;28;20473;-58
2021/05/09 06:52:24;;;;;;;2.10;1.70;;;;;;;;;;5034567;28;20454;-59
2021/05/09 06:54:51;;;;;;;2.70;1.80;;;;;;;;;;5034335;28;20937;-59
2021/05/09 06:57:18;;;;;;;2.93;2.53;;;;;;;;;;5038046;28;20443;-67
2021/05/09 06:59:46;;;;;;;2.17;1.97;;;;;;;;;;5036407;28;20448;-65
2021/05/09 07:02:12;;;;;;;1.90;1.77;;;;;;;;;;5034407;28;20450;-58
2021/05/09 07:04:39;;;;;;;3.10;2.10;;;;;;;;;;5034309;28;20472;-59
2021/05/09 07:07:06;;;;;;;2.30;1.80;;;;;;;;;;5034094;28;20508;-57
2021/05/09 07:09:33;;;;;;;2.10;1.90;;;;;;;;;;5034077;28;20472;-58
2021/05/09 07:11:59;;;;;;;2.93;1.77;;;;;;;;;;5033831;28;20442;-59
2021/05/09 07:14:26;;;;;;;2.60;1.67;;;;;;;;;;5034138;28;20931;-59
2021/05/09 07:16:54;;;;;;;3.77;2.00;;;;;;;;;;5033860;28;20955;-58
2021/05/09 07:19:21;;;;;;;2.13;1.80;;;;;;;;;;5033668;28;20507;-60
2021/05/09 07:21:52;;;;;;;3.30;1.60;;;;;;;;;;5033988;28;20453;-60
2021/05/09 07:24:19;;;;;;;5.13;2.20;;;;;;;;;;5033636;28;20436;-60
2021/05/09 07:26:47;;;;;;;2.17;1.77;;;;;;;;;;5033499;28;20477;-60
2021/05/09 07:29:14;;;;;;;5.57;2.60;;;;;;;;;;5033902;28;20811;-59
2021/05/09 07:31:41;;;;;;;2.70;2.07;;;;;;;;;;5034082;28;20444;-59
2021/05/09 07:34:09;;;;;;;2.27;1.50;;;;;;;;;;5034028;28;20535;-59
2021/05/09 07:36:38;;;;;;;2.17;1.97;;;;;;;;;;5034045;28;20471;-60
2021/05/09 07:39:06;;;;;;;3.77;2.70;;;;;;;;;;5033675;28;20481;-59
2021/05/09 07:41:32;;;;;;;5.17;2.57;;;;;;;;;;5033555;28;20453;-60
2021/05/09 07:43:59;;;;;;;1.80;1.70;;;;;;;;;;5033497;28;20453;-59
2021/05/09 07:46:26;;;;;;;2.73;1.60;;;;;;;;;;5033507;28;20492;-60
2021/05/09 07:48:53;;;;;;;3.67;1.70;;;;;;;;;;5033232;28;20971;-59
2021/05/09 07:51:20;;;;;;;2.60;1.87;;;;;;;;;;5033311;28;20457;-59
2021/05/09 07:53:47;;;;;;;2.27;1.50;;;;;;;;;;5033527;28;20449;-59
2021/05/09 07:56:14;;;;;;;1.60;1.50;;;;;;;;;;5033545;28;20519;-59
2021/05/09 07:58:41;;;;;;;1.67;1.57;;;;;;;;;;5033403;28;20469;-59
2021/05/09 08:01:07;;;;;;;2.80;1.80;;;;;;;;;;5033098;28;20456;-59
2021/05/09 08:03:36;;;;;;;2.13;1.40;;;;;;;;;;5033154;28;21018;-59
2021/05/09 08:06:03;;;;;;;2.57;1.60;;;;;;;;;;5033389;28;20505;-59
2021/05/09 08:08:32;;;;;;;2.53;1.77;;;;;;;;;;5033302;28;20470;-60
2021/05/09 08:10:59;;;;;;;2.10;1.30;;;;;;;;;;5034024;28;20450;-59
2021/05/09 08:13:25;;;;;;;1.80;1.70;;;;;;;;;;5033234;28;20451;-59
2021/05/09 08:15:52;;;;;;;1.43;1.33;;;;;;;;;;5033389;28;20862;-60
2021/05/09 08:18:22;;;;;;;1.70;1.60;;;;;;;;;;5033529;28;20854;-58
2021/05/09 08:20:49;;;;;;;4.60;1.77;;;;;;;;;;5033626;28;20470;-59
2021/05/09 08:23:16;;;;;;;1.70;1.60;;;;;;;;;;5033210;28;20443;-58
2021/05/09 08:25:43;;;;;;;1.57;1.47;;;;;;;;;;5033309;28;20471;-60
2021/05/09 08:28:10;;;;;;;1.90;1.70;;;;;;;;;;5032743;28;20541;-59
2021/05/09 08:30:37;;;;;;;3.10;1.80;;;;;;;;;;5032989;28;20956;-59
2021/05/09 08:33:04;;;;;;;1.40;1.30;;;;;;;;;;5033130;28;20450;-59
2021/05/09 08:35:31;;;;;;;1.87;1.57;;;;;;;;;;5032801;28;20453;-58
2021/05/09 08:37:57;;;;;;;2.20;1.67;;;;;;;;;;5032507;28;21012;-60
2021/05/09 08:40:24;;;;;;;1.97;1.70;;;;;;;;;;5033065;28;20814;-59
2021/05/09 08:42:52;;;;;;;2.50;1.70;;;;;;;;;;5033052;28;20795;-59
2021/05/09 08:45:20;;;;;;;1.63;1.53;;;;;;;;;;5032565;28;20466;-59
2021/05/09 08:47:47;;;;;;;2.33;1.53;;;;;;;;;;5032386;28;20483;-59
2021/05/09 08:50:15;;;;;;;1.73;1.63;;;;;;;;;;5032892;28;20506;-60
2021/05/09 08:52:43;;;;;;;6.53;1.47;;;;;;;;;;5032868;28;20962;-60
2021/05/09 08:55:10;;;;;;;1.83;1.40;;;;;;;;;;5036323;28;20953;-59
2021/05/09 08:57:40;;;;;;;1.73;1.63;;;;;;;;;;5036705;28;20506;-60
2021/05/09 09:00:09;;;;;;;1.73;1.63;;;;;;;;;;5036726;28;20451;-60
2021/05/09 09:02:36;;;;;;;2.67;2.30;;;;;;;;;;5036504;28;20969;-59
2021/05/09 09:05:03;;;;;;;2.57;1.57;;;;;;;;;;5036512;28;20451;-59
2021/05/09 09:07:43;;;;;;;3.43;1.70;;;;;;;;;;5035960;28;20487;-59
2021/05/09 09:10:10;;;;;;;5.00;2.30;;;;;;;;;;5036581;28;20439;-59
2021/05/09 09:12:37;;;;;;;3.20;1.90;;;;;;;;;;5036366;28;20452;-60
2021/05/09 09:15:05;;;;;;;1.83;1.70;;;;;;;;;;5035794;28;20463;-59
2021/05/09 09:17:33;;;;;;;2.47;1.60;;;;;;;;;;5036186;28;20791;-60
2021/05/09 09:20:06;;;;;;;2.37;1.77;;;;;;;;;;5036162;28;20819;-60
2021/05/09 09:22:47;;;;;;;2.13;1.90;;;;;;;;;;5035810;28;20534;-59
2021/05/09 09:25:14;;;;;;;5.43;2.00;;;;;;;;;;5020020;28;20799;-59
2021/05/09 09:27:42;;;;;;;2.00;1.80;;;;;;;;;;5035419;28;20861;-60
2021/05/09 09:30:10;;;;;;;1.77;1.57;;;;;;;;;;5035986;28;20502;-60
2021/05/09 09:32:38;;;;;;;2.70;1.80;;;;;;;;;;5036387;28;20935;-60
2021/05/09 09:35:26;;;;;;;1.90;1.60;;;;;;;;;;5035529;28;20960;-60
2021/05/09 09:37:52;;;;;;;2.90;2.03;;;;;;;;;;5035727;28;20493;-59
2021/05/09 09:40:19;;;;;;;3.30;2.03;;;;;;;;;;5035968;28;20425;-60
2021/05/09 09:42:47;;;;;;;2.07;1.70;;;;;;;;;;5036239;28;20537;-60
2021/05/09 09:45:14;;;;;;;1.80;1.50;;;;;;;;;;5035803;28;20449;-59
2021/05/09 09:47:48;;;;;;;1.63;1.50;;;;;;;;;;5035561;28;21026;-59
2021/05/09 09:50:30;;;;;;;1.50;1.40;;;;;;;;;;5035109;28;20459;-59
2021/05/09 09:52:57;;;;;;;2.90;1.70;;;;;;;;;;5035171;28;20624;-60
2021/05/09 09:55:24;;;;;;;2.10;1.90;;;;;;;;;;5035693;28;20445;-59
2021/05/09 09:58:01;;;;;;;2.10;1.70;;;;;;;;;;5035321;28;20473;-60
2021/05/09 10:00:28;;;;;;;1.70;1.13;;;;;;;;;;5035282;28;20495;-61
2021/05/09 10:02:56;;;;;;;1.53;1.43;;;;;;;;;;5035395;28;20449;-60
2021/05/09 10:05:23;;;;;;;1.97;1.37;;;;;;;;;;5034916;28;20464;-59
2021/05/09 10:07:50;;;;;;;1.57;1.47;;;;;;;;;;5035782;28;20512;-60
2021/05/09 10:10:17;;;;;;;2.10;1.60;;;;;;;;;;5037207;28;20445;-59
2021/05/09 10:12:44;;;;;;;1.50;1.40;;;;;;;;;;5037352;28;20453;-59
2021/05/09 10:15:11;;;;;;;3.27;1.80;;;;;;;;;;5036834;28;20453;-58
2021/05/09 10:17:38;;;;;;;1.33;1.20;;;;;;;;;;5035640;28;20452;-61
2021/05/09 10:20:07;;;;;;;2.43;1.47;;;;;;;;;;5035379;28;20448;-59
2021/05/09 10:22:34;;;;;;;1.80;1.60;;;;;;;;;;5035900;28;20464;-59
2021/05/09 10:25:02;;;;;;;1.90;1.70;;;;;;;;;;5035445;28;20531;-60
2021/05/09 10:27:36;;;;;;;1.67;1.10;;;;;;;;;;5035039;28;20554;-59
2021/05/09 10:30:03;;;;;;;2.60;1.70;;;;;;;;;;5034778;28;20437;-59
2021/05/09 10:32:51;;;;;;;2.50;1.80;;;;;;;;;;5034638;28;20813;-59
2021/05/09 10:35:34;;;;;;;2.57;1.63;;;;;;;;;;5034941;28;20512;-60
2021/05/09 10:38:01;;;;;;;2.47;1.43;;;;;;;;;;5034771;28;20598;-61
2021/05/09 10:40:31;;;;;;;5.17;1.80;;;;;;;;;;5034737;28;20862;-60
2021/05/09 10:43:15;;;;;;;4.50;1.50;;;;;;;;;;5034393;28;20954;-60
2021/05/09 10:45:53;;;;;;;1.87;1.43;;;;;;;;;;5034669;28;20452;-60
2021/05/09 10:48:35;;;;;;;1.77;1.33;;;;;;;;;;5034130;28;20495;-60
2021/05/09 10:54:29;;;;;;;1.87;1.77;;;;;;;;;;5112257;27;21056;-60
2021/05/09 10:56:57;;;;;;;1.87;1.60;;;;;;;;;;5068605;28;20419;-59
2021/05/09 10:59:38;;;;;;;2.00;1.50;;;;;;;;;;5101660;28;20500;-59
2021/05/09 11:02:09;;;;;;;2.07;1.87;;;;;;;;;;5110752;28;20438;-59
2021/05/09 11:04:48;;;;;;;1.73;1.63;;;;;;;;;;5110798;28;20474;-59
2021/05/09 11:07:30;;;;;;;2.03;1.53;;;;;;;;;;5112254;28;20449;-59
2021/05/09 11:09:57;;;;;;;1.90;1.67;;;;;;;;;;5110716;28;20433;-60
2021/05/09 11:12:27;;;;;;;2.13;1.40;;;;;;;;;;5110927;28;20480;-60
2021/05/09 11:15:11;;;;;;;1.90;1.80;;;;;;;;;;5111057;28;20866;-60
2021/05/09 11:17:38;;;;;;;1.90;1.70;;;;;;;;;;5110527;28;20462;-59
2021/05/09 11:20:09;;;;;;;2.30;1.40;;;;;;;;;;5110733;28;20450;-61
2021/05/09 11:22:36;;;;;;;2.10;1.47;;;;;;;;;;5110924;28;20430;-61
2021/05/09 11:25:02;;;;;;;1.73;1.30;;;;;;;;;;5110819;28;20449;-61
2021/05/09 11:27:32;;;;;;;3.63;2.37;;;;;;;;;;5110295;28;20445;-59
2021/05/09 11:29:59;;;;;;;2.10;1.90;;;;;;;;;;5110203;28;20458;-64
2021/05/09 11:32:26;;;;;;;2.10;1.87;;;;;;;;;;5110327;28;20476;-61
2021/05/09 11:34:54;;;;;;;1.83;1.60;;;;;;;;;;5110450;28;20820;-59
2021/05/09 11:37:23;;;;;;;2.13;1.93;;;;;;;;;;5110459;28;20460;-60
2021/05/09 11:39:50;;;;;;;1.90;1.70;;;;;;;;;;5110170;28;20465;-59
2021/05/09 11:42:18;;;;;;;2.40;1.80;;;;;;;;;;5110220;28;20530;-59
2021/05/09 11:44:46;;;;;;;3.00;1.73;;;;;;;;;;5109813;28;20449;-59
2021/05/09 11:47:14;;;;;;;2.17;1.70;;;;;;;;;;5110119;28;20806;-60
2021/05/09 11:49:41;;;;;;;2.10;1.90;;;;;;;;;;5110000;28;20462;-60
2021/05/09 11:52:09;;;;;;;1.90;1.63;;;;;;;;;;5109828;28;20485;-59
2021/05/09 11:54:37;;;;;;;3.40;2.10;;;;;;;;;;5110315;28;20512;-60
2021/05/09 11:57:05;;;;;;;2.60;1.80;;;;;;;;;;5109938;28;20442;-59
2021/05/09 11:59:33;;;;;;;1.93;1.73;;;;;;;;;;5110309;28;20918;-59
2021/05/09 12:02:01;;;;;;;1.80;1.57;;;;;;;;;;5109984;28;20433;-60
2021/05/09 12:04:31;;;;;;;3.77;2.00;;;;;;;;;;5101330;28;20942;-60
2021/05/09 12:07:02;;;;;;;2.30;1.83;;;;;;;;;;5096353;28;20446;-61
2021/05/09 12:09:29;;;;;;;1.90;1.70;;;;;;;;;;5096055;28;20465;-59
2021/05/09 12:11:56;;;;;;;2.10;1.90;;;;;;;;;;5096267;28;20449;-60
2021/05/09 12:14:24;;;;;;;2.20;1.83;;;;;;;;;;5095890;28;20499;-60
2021/05/09 12:16:51;;;;;;;2.97;1.80;;;;;;;;;;5095945;28;20450;-61
2021/05/09 12:19:19;;;;;;;1.93;1.73;;;;;;;;;;5095833;28;20458;-60
2021/05/09 12:21:55;;;;;;;3.93;1.67;;;;;;;;;;5095961;28;20446;-61
2021/05/09 12:24:22;;;;;;;1.80;1.50;;;;;;;;;;5096659;28;20532;-61
2021/05/09 12:26:59;;;;;;;2.20;1.80;;;;;;;;;;5096070;28;20446;-60
2021/05/09 12:29:26;;;;;;;2.20;2.00;;;;;;;;;;5095632;28;20474;-60
2021/05/09 12:31:53;;;;;;;6.63;2.00;;;;;;;;;;5095551;28;20888;-60
2021/05/09 12:34:27;;;;;;;2.43;2.00;;;;;;;;;;5096067;28;20528;-61
2021/05/09 12:37:07;;;;;;;2.30;2.10;;;;;;;;;;5096069;28;20461;-61
2021/05/09 12:39:33;;;;;;;2.10;2.00;;;;;;;;;;5078953;22;20994;-62
2021/05/09 12:42:02;;;;;;;1.67;1.57;;;;;;;;;;5034975;28;20999;-62
2021/05/09 12:44:29;;;;;;;2.27;1.90;;;;;;;;;;5035103;28;20943;-63
2021/05/09 12:46:56;;;;;;;3.80;1.80;;;;;;;;;;5035451;28;20449;-61
2021/05/09 12:49:24;;;;;;;2.70;1.67;;;;;;;;;;5035099;28;21054;-63
2021/05/09 12:51:52;;;;;;;2.03;1.73;;;;;;;;;;5034988;28;20959;-62
2021/05/09 12:54:35;;;;;;;2.07;1.63;;;;;;;;;;5035125;28;20503;-62
2021/05/09 12:57:18;;;;;;;2.00;1.80;;;;;;;;;;5034883;28;20457;-62
2021/05/09 12:59:46;;;;;;;2.03;1.83;;;;;;;;;;5034695;28;21006;-63
2021/05/09 13:02:14;;;;;;;2.83;1.60;;;;;;;;;;5035261;28;20472;-63
2021/05/09 13:04:46;;;;;;;3.27;1.93;;;;;;;;;;5035108;28;20539;-63
2021/05/09 13:07:15;;;;;;;2.10;1.73;;;;;;;;;;5035027;28;20908;-63
2021/05/09 13:09:43;;;;;;;2.27;1.60;;;;;;;;;;5034441;28;20504;-63
2021/05/09 13:12:10;;;;;;;2.07;1.50;;;;;;;;;;5034856;28;20519;-63
2021/05/09 13:14:41;;;;;;;2.23;1.90;;;;;;;;;;5034475;28;20815;-62
2021/05/09 13:17:08;;;;;;;2.10;1.90;;;;;;;;;;5033929;28;20453;-62
2021/05/09 13:19:35;;;;;;;2.00;1.60;;;;;;;;;;5034761;28;20500;-63
2021/05/09 13:22:01;;;;;;;2.53;1.80;;;;;;;;;;5034590;28;20448;-62
2021/05/09 13:24:29;;;;;;;4.27;2.20;;;;;;;;;;5034255;28;21001;-62
2021/05/09 13:26:56;;;;;;;2.27;2.07;;;;;;;;;;5034115;28;20924;-62
2021/05/09 13:29:23;;;;;;;2.30;1.80;;;;;;;;;;5034106;28;20929;-61
2021/05/09 13:31:49;;;;;;;3.30;1.90;;;;;;;;;;5034160;28;20956;-63
2021/05/09 13:34:16;;;;;;;3.27;2.20;;;;;;;;;;5034442;28;20948;-62
2021/05/09 13:36:44;;;;;;;4.20;2.07;;;;;;;;;;5034113;28;20453;-62
2021/05/09 13:39:11;;;;;;;2.07;1.80;;;;;;;;;;5034288;28;20534;-63
2021/05/09 13:41:38;;;;;;;2.63;1.87;;;;;;;;;;5034326;28;20526;-63
2021/05/09 13:44:05;;;;;;;2.50;2.10;;;;;;;;;;5033927;28;20441;-62
2021/05/09 13:46:32;;;;;;;2.70;1.87;;;;;;;;;;5033986;28;20451;-62
2021/05/09 13:48:59;;;;;;;2.40;1.47;;;;;;;;;;5034020;28;20465;-63
2021/05/09 13:51:26;;;;;;;2.03;1.83;;;;;;;;;;5034055;28;20449;-62
2021/05/09 13:53:53;;;;;;;2.53;1.80;;;;;;;;;;5034326;28;20484;-62
2021/05/09 13:56:20;;;;;;;2.03;1.93;;;;;;;;;;5034180;28;20449;-62
2021/05/09 13:58:52;;;;;;;2.30;2.10;;;;;;;;;;5033883;28;20480;-61
2021/05/09 14:01:18;;;;;;;1.80;1.70;;;;;;;;;;5034145;28;20494;-62
2021/05/09 14:03:45;;;;;;;2.40;2.17;;;;;;;;;;5033985;28;20449;-62
2021/05/09 14:06:13;;;;;;;2.63;2.43;;;;;;;;;;5033685;28;20449;-62
2021/05/09 14:08:40;;;;;;;2.47;2.27;;;;;;;;;;5032732;28;20465;-62
2021/05/09 14:11:08;;;;;;;2.50;2.30;;;;;;;;;;5033872;28;20448;-62
2021/05/09 14:13:35;;;;;;;2.27;1.67;;;;;;;;;;5033759;28;20484;-62
2021/05/09 14:16:03;;;;;;;6.60;2.10;;;;;;;;;;5033864;28;20444;-63
2021/05/09 14:18:30;;;;;;;3.37;2.00;;;;;;;;;;5033766;28;20472;-61
2021/05/09 14:20:57;;;;;;;2.67;1.90;;;;;;;;;;5033761;28;20514;-62
2021/05/09 14:23:24;;;;;;;2.10;1.90;;;;;;;;;;5033920;28;20523;-62
2021/05/09 14:25:51;;;;;;;3.40;1.77;;;;;;;;;;5033495;28;20445;-61
2021/05/09 14:28:18;;;;;;;3.37;2.03;;;;;;;;;;5033409;28;20453;-63
2021/05/09 14:30:45;;;;;;;2.23;1.70;;;;;;;;;;5033530;28;20479;-63
2021/05/09 14:33:13;;;;;;;3.23;1.70;;;;;;;;;;5033788;28;20484;-62
2021/05/09 14:35:42;;;;;;;1.87;1.77;;;;;;;;;;5033612;28;20472;-61
2021/05/09 14:38:09;;;;;;;2.33;2.00;;;;;;;;;;5034122;28;20445;-63
2021/05/09 14:40:35;;;;;;;2.27;1.43;;;;;;;;;;5033325;28;20457;-62
2021/05/09 14:43:02;;;;;;;2.73;1.93;;;;;;;;;;5033328;28;20810;-62
2021/05/09 14:45:29;;;;;;;3.00;1.80;;;;;;;;;;5033052;28;20472;-62
2021/05/09 14:47:56;;;;;;;2.40;1.90;;;;;;;;;;5033499;28;20502;-62
2021/05/09 14:50:23;;;;;;;2.40;2.07;;;;;;;;;;5033108;28;20475;-62
2021/05/09 14:52:50;;;;;;;2.67;2.03;;;;;;;;;;5032815;28;20492;-61
2021/05/09 14:55:17;;;;;;;4.33;2.00;;;;;;;;;;5033048;28;20445;-61